sensor_id;sensor_type;location;lat;lon;timestamp;P1;durP1;ratioP1;P2;durP2;ratioP2
13435;SDS011;6790;49.520;8.504;2023-10-09T00:01:02;7.23;;;5.30;;
13435;SDS011;6790;49.520;8.504;2023-10-09T00:03:34;10.57;;;5.20;;
13435;SDS011;6790;49.520;8.504;2023-10-09T00:06:02;12.33;;;5.17;;
13435;SDS011;6790;49.520;8.504;2023-10-09T00:08:29;6.60;;;4.53;;
13435;SDS011;6790;49.520;8.504;2023-10-09T00:10:58;6.13;;;5.30;;
13435;SDS011;6790;49.520;8.504;2023-10-09T00:13:45;8.80;;;5.83;;
13435;SDS011;6790;49.520;8.504;2023-10-09T00:16:17;7.73;;;4.67;;
13435;SDS011;6790;49.520;8.504;2023-10-09T00:19:03;11.67;;;4.63;;
13435;SDS011;6790;49.520;8.504;2023-10-09T00:21:51;10.60;;;4.53;;
13435;SDS011;6790;49.520;8.504;2023-10-09T00:24:20;7.27;;;4.60;;
13435;SDS011;6790;49.520;8.504;2023-10-09T00:26:51;5.53;;;4.30;;
13435;SDS011;6790;49.520;8.504;2023-10-09T00:29:21;6.23;;;4.37;;
13435;SDS011;6790;49.520;8.504;2023-10-09T00:31:50;9.47;;;4.20;;
13435;SDS011;6790;49.520;8.504;2023-10-09T00:34:20;6.10;;;4.83;;
13435;SDS011;6790;49.520;8.504;2023-10-09T00:36:47;9.43;;;5.30;;
13435;SDS011;6790;49.520;8.504;2023-10-09T00:39:17;6.57;;;4.07;;
13435;SDS011;6790;49.520;8.504;2023-10-09T00:42:19;8.53;;;4.87;;
13435;SDS011;6790;49.520;8.504;2023-10-09T00:44:54;6.90;;;5.67;;
13435;SDS011;6790;49.520;8.504;2023-10-09T00:47:20;6.47;;;4.17;;
13435;SDS011;6790;49.520;8.504;2023-10-09T00:52:29;9.90;;;5.23;;
13435;SDS011;6790;49.520;8.504;2023-10-09T00:55:08;6.07;;;4.50;;
13435;SDS011;6790;49.520;8.504;2023-10-09T00:57:40;6.43;;;5.13;;
13435;SDS011;6790;49.520;8.504;2023-10-09T01:00:15;8.27;;;5.00;;
13435;SDS011;6790;49.520;8.504;2023-10-09T01:03:00;5.87;;;4.37;;
13435;SDS011;6790;49.520;8.504;2023-10-09T01:05:51;9.10;;;4.80;;
13435;SDS011;6790;49.520;8.504;2023-10-09T01:08:24;9.50;;;5.00;;
13435;SDS011;6790;49.520;8.504;2023-10-09T01:11:15;7.40;;;4.90;;
13435;SDS011;6790;49.520;8.504;2023-10-09T01:13:54;8.50;;;4.90;;
13435;SDS011;6790;49.520;8.504;2023-10-09T01:16:28;7.57;;;5.30;;
13435;SDS011;6790;49.520;8.504;2023-10-09T01:18:56;5.70;;;4.33;;
13435;SDS011;6790;49.520;8.504;2023-10-09T01:21:22;7.77;;;5.17;;
13435;SDS011;6790;49.520;8.504;2023-10-09T01:23:50;7.83;;;5.93;;
13435;SDS011;6790;49.520;8.504;2023-10-09T01:26:33;11.77;;;4.33;;
13435;SDS011;6790;49.520;8.504;2023-10-09T01:29:13;13.67;;;5.30;;
13435;SDS011;6790;49.520;8.504;2023-10-09T01:34:30;7.57;;;4.07;;
13435;SDS011;6790;49.520;8.504;2023-10-09T01:37:03;7.67;;;4.70;;
13435;SDS011;6790;49.520;8.504;2023-10-09T01:39:30;7.37;;;5.63;;
13435;SDS011;6790;49.520;8.504;2023-10-09T01:41:56;9.27;;;6.20;;
13435;SDS011;6790;49.520;8.504;2023-10-09T01:44:27;7.17;;;4.70;;
13435;SDS011;6790;49.520;8.504;2023-10-09T01:46:59;9.70;;;4.67;;
13435;SDS011;6790;49.520;8.504;2023-10-09T01:49:33;8.47;;;4.97;;
13435;SDS011;6790;49.520;8.504;2023-10-09T01:52:02;7.90;;;4.70;;
13435;SDS011;6790;49.520;8.504;2023-10-09T01:54:34;6.27;;;4.13;;
13435;SDS011;6790;49.520;8.504;2023-10-09T01:57:06;8.03;;;4.60;;
13435;SDS011;6790;49.520;8.504;2023-10-09T01:59:47;7.23;;;3.90;;
13435;SDS011;6790;49.520;8.504;2023-10-09T02:02:15;8.73;;;4.50;;
13435;SDS011;6790;49.520;8.504;2023-10-09T02:04:56;9.17;;;5.60;;
13435;SDS011;6790;49.520;8.504;2023-10-09T02:07:41;8.20;;;4.27;;
13435;SDS011;6790;49.520;8.504;2023-10-09T02:10:10;10.07;;;4.90;;
13435;SDS011;6790;49.520;8.504;2023-10-09T02:12:59;7.13;;;3.87;;
13435;SDS011;6790;49.520;8.504;2023-10-09T02:15:37;5.93;;;3.90;;
13435;SDS011;6790;49.520;8.504;2023-10-09T02:18:14;6.17;;;4.97;;
13435;SDS011;6790;49.520;8.504;2023-10-09T02:20:51;9.90;;;4.93;;
13435;SDS011;6790;49.520;8.504;2023-10-09T02:23:32;7.07;;;4.23;;
13435;SDS011;6790;49.520;8.504;2023-10-09T02:26:15;10.70;;;4.33;;
13435;SDS011;6790;49.520;8.504;2023-10-09T02:28:48;12.40;;;5.20;;
13435;SDS011;6790;49.520;8.504;2023-10-09T02:31:40;6.57;;;3.67;;
13435;SDS011;6790;49.520;8.504;2023-10-09T02:34:09;6.17;;;3.53;;
13435;SDS011;6790;49.520;8.504;2023-10-09T02:36:38;10.27;;;5.13;;
13435;SDS011;6790;49.520;8.504;2023-10-09T02:39:08;10.20;;;4.60;;
13435;SDS011;6790;49.520;8.504;2023-10-09T02:41:54;9.00;;;4.10;;
13435;SDS011;6790;49.520;8.504;2023-10-09T02:44:41;6.73;;;4.30;;
13435;SDS011;6790;49.520;8.504;2023-10-09T02:47:15;7.23;;;4.30;;
13435;SDS011;6790;49.520;8.504;2023-10-09T02:49:55;6.07;;;3.73;;
13435;SDS011;6790;49.520;8.504;2023-10-09T02:52:32;6.63;;;3.70;;
13435;SDS011;6790;49.520;8.504;2023-10-09T02:55:05;6.27;;;4.00;;
13435;SDS011;6790;49.520;8.504;2023-10-09T02:57:47;7.83;;;4.43;;
13435;SDS011;6790;49.520;8.504;2023-10-09T03:00:16;9.17;;;4.20;;
13435;SDS011;6790;49.520;8.504;2023-10-09T03:02:54;13.87;;;5.27;;
13435;SDS011;6790;49.520;8.504;2023-10-09T03:05:23;9.80;;;4.10;;
13435;SDS011;6790;49.520;8.504;2023-10-09T03:07:52;5.67;;;3.87;;
13435;SDS011;6790;49.520;8.504;2023-10-09T03:10:21;8.57;;;3.87;;
13435;SDS011;6790;49.520;8.504;2023-10-09T03:12:47;8.90;;;4.50;;
13435;SDS011;6790;49.520;8.504;2023-10-09T03:15:18;8.77;;;3.77;;
13435;SDS011;6790;49.520;8.504;2023-10-09T03:17:47;8.70;;;4.43;;
13435;SDS011;6790;49.520;8.504;2023-10-09T03:20:13;7.03;;;4.17;;
13435;SDS011;6790;49.520;8.504;2023-10-09T03:22:42;7.23;;;3.90;;
13435;SDS011;6790;49.520;8.504;2023-10-09T03:25:13;10.17;;;4.50;;
13435;SDS011;6790;49.520;8.504;2023-10-09T03:27:42;10.77;;;4.40;;
13435;SDS011;6790;49.520;8.504;2023-10-09T03:30:16;6.93;;;4.10;;
13435;SDS011;6790;49.520;8.504;2023-10-09T03:32:51;7.37;;;4.20;;
13435;SDS011;6790;49.520;8.504;2023-10-09T03:35:18;8.67;;;4.50;;
13435;SDS011;6790;49.520;8.504;2023-10-09T03:37:58;11.57;;;4.60;;
13435;SDS011;6790;49.520;8.504;2023-10-09T03:40:47;9.43;;;4.43;;
13435;SDS011;6790;49.520;8.504;2023-10-09T03:43:13;8.43;;;3.77;;
13435;SDS011;6790;49.520;8.504;2023-10-09T03:45:39;5.67;;;3.83;;
13435;SDS011;6790;49.520;8.504;2023-10-09T03:48:17;10.83;;;4.57;;
13435;SDS011;6790;49.520;8.504;2023-10-09T03:50:57;9.47;;;3.97;;
13435;SDS011;6790;49.520;8.504;2023-10-09T03:53:34;8.33;;;4.13;;
13435;SDS011;6790;49.520;8.504;2023-10-09T03:56:08;6.50;;;3.87;;
13435;SDS011;6790;49.520;8.504;2023-10-09T03:58:40;8.43;;;4.27;;
13435;SDS011;6790;49.520;8.504;2023-10-09T04:01:14;6.97;;;3.70;;
13435;SDS011;6790;49.520;8.504;2023-10-09T04:03:49;5.30;;;3.47;;
13435;SDS011;6790;49.520;8.504;2023-10-09T04:06:25;7.90;;;4.00;;
13435;SDS011;6790;49.520;8.504;2023-10-09T04:08:58;10.53;;;4.17;;
13435;SDS011;6790;49.520;8.504;2023-10-09T04:11:52;7.23;;;4.60;;
13435;SDS011;6790;49.520;8.504;2023-10-09T04:14:42;7.50;;;3.00;;
13435;SDS011;6790;49.520;8.504;2023-10-09T04:17:22;11.13;;;3.93;;
13435;SDS011;6790;49.520;8.504;2023-10-09T04:19:48;9.90;;;4.40;;
13435;SDS011;6790;49.520;8.504;2023-10-09T04:22:37;8.90;;;3.67;;
13435;SDS011;6790;49.520;8.504;2023-10-09T04:25:15;8.73;;;3.77;;
13435;SDS011;6790;49.520;8.504;2023-10-09T04:27:59;8.90;;;4.13;;
13435;SDS011;6790;49.520;8.504;2023-10-09T04:30:35;8.13;;;4.30;;
13435;SDS011;6790;49.520;8.504;2023-10-09T04:33:24;7.67;;;4.00;;
13435;SDS011;6790;49.520;8.504;2023-10-09T04:35:54;6.93;;;3.67;;
13435;SDS011;6790;49.520;8.504;2023-10-09T04:38:52;12.20;;;4.20;;
13435;SDS011;6790;49.520;8.504;2023-10-09T04:41:41;10.30;;;5.00;;
13435;SDS011;6790;49.520;8.504;2023-10-09T04:44:07;10.53;;;4.07;;
13435;SDS011;6790;49.520;8.504;2023-10-09T04:46:48;9.00;;;4.00;;
13435;SDS011;6790;49.520;8.504;2023-10-09T04:49:34;9.40;;;4.10;;
13435;SDS011;6790;49.520;8.504;2023-10-09T04:52:12;10.40;;;3.83;;
13435;SDS011;6790;49.520;8.504;2023-10-09T04:55:05;9.27;;;4.30;;
13435;SDS011;6790;49.520;8.504;2023-10-09T04:57:32;12.77;;;4.13;;
13435;SDS011;6790;49.520;8.504;2023-10-09T05:00:24;9.20;;;4.37;;
13435;SDS011;6790;49.520;8.504;2023-10-09T05:03:00;9.83;;;4.17;;
13435;SDS011;6790;49.520;8.504;2023-10-09T05:05:50;6.47;;;3.63;;
13435;SDS011;6790;49.520;8.504;2023-10-09T05:08:23;8.97;;;3.77;;
13435;SDS011;6790;49.520;8.504;2023-10-09T05:10:55;12.33;;;4.40;;
13435;SDS011;6790;49.520;8.504;2023-10-09T05:13:25;9.13;;;4.20;;
13435;SDS011;6790;49.520;8.504;2023-10-09T05:18:43;7.93;;;4.10;;
13435;SDS011;6790;49.520;8.504;2023-10-09T05:21:37;8.00;;;3.80;;
13435;SDS011;6790;49.520;8.504;2023-10-09T05:24:07;8.53;;;3.90;;
13435;SDS011;6790;49.520;8.504;2023-10-09T05:26:37;8.43;;;4.53;;
13435;SDS011;6790;49.520;8.504;2023-10-09T05:29:25;7.17;;;4.03;;
13435;SDS011;6790;49.520;8.504;2023-10-09T05:31:57;10.47;;;4.17;;
13435;SDS011;6790;49.520;8.504;2023-10-09T05:34:42;11.17;;;4.57;;
13435;SDS011;6790;49.520;8.504;2023-10-09T05:37:25;6.70;;;3.70;;
13435;SDS011;6790;49.520;8.504;2023-10-09T05:39:58;9.77;;;4.13;;
13435;SDS011;6790;49.520;8.504;2023-10-09T05:42:26;8.27;;;4.43;;
13435;SDS011;6790;49.520;8.504;2023-10-09T05:47:43;7.90;;;4.33;;
13435;SDS011;6790;49.520;8.504;2023-10-09T05:50:23;9.30;;;4.20;;
13435;SDS011;6790;49.520;8.504;2023-10-09T05:52:57;8.73;;;4.10;;
13435;SDS011;6790;49.520;8.504;2023-10-09T05:55:26;7.50;;;3.73;;
13435;SDS011;6790;49.520;8.504;2023-10-09T05:58:22;6.80;;;3.60;;
13435;SDS011;6790;49.520;8.504;2023-10-09T06:01:06;11.07;;;4.30;;
13435;SDS011;6790;49.520;8.504;2023-10-09T06:03:50;7.87;;;3.87;;
13435;SDS011;6790;49.520;8.504;2023-10-09T06:06:40;8.33;;;4.37;;
13435;SDS011;6790;49.520;8.504;2023-10-09T06:09:10;6.43;;;3.80;;
13435;SDS011;6790;49.520;8.504;2023-10-09T06:11:37;9.23;;;4.37;;
13435;SDS011;6790;49.520;8.504;2023-10-09T06:14:04;8.13;;;4.27;;
13435;SDS011;6790;49.520;8.504;2023-10-09T06:16:33;10.90;;;4.77;;
13435;SDS011;6790;49.520;8.504;2023-10-09T06:19:25;10.73;;;3.67;;
13435;SDS011;6790;49.520;8.504;2023-10-09T06:21:51;7.17;;;4.30;;
13435;SDS011;6790;49.520;8.504;2023-10-09T06:24:38;11.60;;;4.07;;
13435;SDS011;6790;49.520;8.504;2023-10-09T06:27:08;8.37;;;4.43;;
13435;SDS011;6790;49.520;8.504;2023-10-09T06:29:40;10.93;;;4.60;;
13435;SDS011;6790;49.520;8.504;2023-10-09T06:32:11;8.40;;;4.33;;
13435;SDS011;6790;49.520;8.504;2023-10-09T06:34:46;10.10;;;4.33;;
13435;SDS011;6790;49.520;8.504;2023-10-09T06:37:17;10.43;;;4.50;;
13435;SDS011;6790;49.520;8.504;2023-10-09T06:39:53;16.47;;;4.90;;
13435;SDS011;6790;49.520;8.504;2023-10-09T06:42:21;8.20;;;3.83;;
13435;SDS011;6790;49.520;8.504;2023-10-09T06:45:06;12.37;;;6.03;;
13435;SDS011;6790;49.520;8.504;2023-10-09T06:47:47;10.17;;;4.30;;
13435;SDS011;6790;49.520;8.504;2023-10-09T06:50:24;12.13;;;4.23;;
13435;SDS011;6790;49.520;8.504;2023-10-09T06:52:53;9.67;;;5.13;;
13435;SDS011;6790;49.520;8.504;2023-10-09T06:55:25;17.33;;;5.47;;
13435;SDS011;6790;49.520;8.504;2023-10-09T06:58:00;7.97;;;4.63;;
13435;SDS011;6790;49.520;8.504;2023-10-09T07:00:27;5.83;;;3.90;;
13435;SDS011;6790;49.520;8.504;2023-10-09T07:03:11;10.13;;;5.73;;
13435;SDS011;6790;49.520;8.504;2023-10-09T07:05:38;11.97;;;5.50;;
13435;SDS011;6790;49.520;8.504;2023-10-09T07:08:24;10.87;;;4.67;;
13435;SDS011;6790;49.520;8.504;2023-10-09T07:11:02;11.93;;;5.27;;
13435;SDS011;6790;49.520;8.504;2023-10-09T07:16:54;10.67;;;4.53;;
13435;SDS011;6790;49.520;8.504;2023-10-09T07:19:29;16.50;;;6.43;;
13435;SDS011;6790;49.520;8.504;2023-10-09T07:21:58;10.43;;;5.30;;
13435;SDS011;6790;49.520;8.504;2023-10-09T07:24:28;8.47;;;5.00;;
13435;SDS011;6790;49.520;8.504;2023-10-09T07:27:08;10.00;;;5.20;;
13435;SDS011;6790;49.520;8.504;2023-10-09T07:29:40;10.90;;;4.77;;
13435;SDS011;6790;49.520;8.504;2023-10-09T07:32:16;8.77;;;4.83;;
13435;SDS011;6790;49.520;8.504;2023-10-09T07:34:51;9.63;;;5.50;;
13435;SDS011;6790;49.520;8.504;2023-10-09T07:37:18;13.93;;;5.50;;
13435;SDS011;6790;49.520;8.504;2023-10-09T07:40:03;8.40;;;5.67;;
13435;SDS011;6790;49.520;8.504;2023-10-09T07:42:33;9.70;;;5.97;;
13435;SDS011;6790;49.520;8.504;2023-10-09T07:45:02;11.80;;;5.80;;
13435;SDS011;6790;49.520;8.504;2023-10-09T07:47:48;9.10;;;5.17;;
13435;SDS011;6790;49.520;8.504;2023-10-09T07:50:38;12.03;;;5.03;;
13435;SDS011;6790;49.520;8.504;2023-10-09T07:53:13;13.60;;;6.03;;
13435;SDS011;6790;49.520;8.504;2023-10-09T07:55:51;11.37;;;5.43;;
13435;SDS011;6790;49.520;8.504;2023-10-09T07:58:21;10.03;;;4.30;;
13435;SDS011;6790;49.520;8.504;2023-10-09T08:00:53;10.83;;;4.90;;
13435;SDS011;6790;49.520;8.504;2023-10-09T08:03:36;9.80;;;5.50;;
13435;SDS011;6790;49.520;8.504;2023-10-09T08:06:03;10.60;;;5.40;;
13435;SDS011;6790;49.520;8.504;2023-10-09T08:08:47;13.97;;;6.67;;
13435;SDS011;6790;49.520;8.504;2023-10-09T08:11:27;11.43;;;7.43;;
13435;SDS011;6790;49.520;8.504;2023-10-09T08:14:10;15.20;;;9.03;;
13435;SDS011;6790;49.520;8.504;2023-10-09T08:16:58;10.70;;;8.33;;
13435;SDS011;6790;49.520;8.504;2023-10-09T08:19:52;14.93;;;6.40;;
13435;SDS011;6790;49.520;8.504;2023-10-09T08:22:36;9.50;;;6.80;;
13435;SDS011;6790;49.520;8.504;2023-10-09T08:25:09;10.73;;;7.83;;
13435;SDS011;6790;49.520;8.504;2023-10-09T08:27:51;11.87;;;8.60;;
13435;SDS011;6790;49.520;8.504;2023-10-09T08:30:40;9.67;;;7.87;;
13435;SDS011;6790;49.520;8.504;2023-10-09T08:33:14;13.63;;;11.30;;
13435;SDS011;6790;49.520;8.504;2023-10-09T08:35:54;13.33;;;11.93;;
13435;SDS011;6790;49.520;8.504;2023-10-09T08:38:27;11.53;;;9.30;;
13435;SDS011;6790;49.520;8.504;2023-10-09T08:40:58;18.30;;;13.60;;
13435;SDS011;6790;49.520;8.504;2023-10-09T08:43:48;18.93;;;10.37;;
13435;SDS011;6790;49.520;8.504;2023-10-09T08:46:19;16.07;;;11.43;;
13435;SDS011;6790;49.520;8.504;2023-10-09T08:48:51;18.10;;;15.10;;
13435;SDS011;6790;49.520;8.504;2023-10-09T08:51:22;9.23;;;7.53;;
13435;SDS011;6790;49.520;8.504;2023-10-09T08:53:50;16.60;;;14.97;;
13435;SDS011;6790;49.520;8.504;2023-10-09T08:56:17;12.77;;;11.20;;
13435;SDS011;6790;49.520;8.504;2023-10-09T08:58:49;18.57;;;13.77;;
13435;SDS011;6790;49.520;8.504;2023-10-09T09:01:16;20.87;;;18.93;;
13435;SDS011;6790;49.520;8.504;2023-10-09T09:03:46;17.07;;;15.27;;
13435;SDS011;6790;49.520;8.504;2023-10-09T09:06:15;13.70;;;12.30;;
13435;SDS011;6790;49.520;8.504;2023-10-09T09:08:46;16.57;;;15.13;;
13435;SDS011;6790;49.520;8.504;2023-10-09T09:11:13;16.03;;;14.37;;
13435;SDS011;6790;49.520;8.504;2023-10-09T09:13:43;20.40;;;18.87;;
13435;SDS011;6790;49.520;8.504;2023-10-09T09:16:32;14.93;;;8.47;;
13435;SDS011;6790;49.520;8.504;2023-10-09T09:19:02;19.33;;;17.63;;
13435;SDS011;6790;49.520;8.504;2023-10-09T09:21:36;20.53;;;18.87;;
13435;SDS011;6790;49.520;8.504;2023-10-09T09:24:05;18.23;;;16.53;;
13435;SDS011;6790;49.520;8.504;2023-10-09T09:26:47;21.23;;;19.67;;
13435;SDS011;6790;49.520;8.504;2023-10-09T09:29:24;16.17;;;14.80;;
13435;SDS011;6790;49.520;8.504;2023-10-09T09:32:02;12.50;;;11.33;;
13435;SDS011;6790;49.520;8.504;2023-10-09T09:34:52;22.33;;;20.77;;
13435;SDS011;6790;49.520;8.504;2023-10-09T09:37:29;24.50;;;22.53;;
13435;SDS011;6790;49.520;8.504;2023-10-09T09:40:04;25.13;;;22.83;;
13435;SDS011;6790;49.520;8.504;2023-10-09T09:42:49;15.60;;;13.98;;
13435;SDS011;6790;49.520;8.504;2023-10-09T09:45:16;21.40;;;19.60;;
13435;SDS011;6790;49.520;8.504;2023-10-09T09:47:48;25.50;;;23.42;;
13435;SDS011;6790;49.520;8.504;2023-10-09T09:50:19;17.58;;;16.27;;
13435;SDS011;6790;49.520;8.504;2023-10-09T09:52:51;24.08;;;22.10;;
13435;SDS011;6790;49.520;8.504;2023-10-09T09:55:21;22.60;;;21.15;;
13435;SDS011;6790;49.520;8.504;2023-10-09T09:57:59;24.25;;;22.42;;
13435;SDS011;6790;49.520;8.504;2023-10-09T10:00:33;20.85;;;19.30;;
13435;SDS011;6790;49.520;8.504;2023-10-09T10:03:06;26.52;;;24.40;;
13435;SDS011;6790;49.520;8.504;2023-10-09T10:05:44;21.40;;;19.77;;
13435;SDS011;6790;49.520;8.504;2023-10-09T10:08:17;29.52;;;27.38;;
13435;SDS011;6790;49.520;8.504;2023-10-09T10:10:46;20.05;;;18.42;;
13435;SDS011;6790;49.520;8.504;2023-10-09T10:13:14;25.67;;;23.52;;
13435;SDS011;6790;49.520;8.504;2023-10-09T10:15:58;17.80;;;16.33;;
13435;SDS011;6790;49.520;8.504;2023-10-09T10:18:29;29.63;;;27.52;;
13435;SDS011;6790;49.520;8.504;2023-10-09T10:21:13;26.35;;;24.20;;
13435;SDS011;6790;49.520;8.504;2023-10-09T10:23:43;24.48;;;22.42;;
13435;SDS011;6790;49.520;8.504;2023-10-09T10:31:54;25.27;;;23.17;;
13435;SDS011;6790;49.520;8.504;2023-10-09T10:34:25;29.73;;;27.38;;
13435;SDS011;6790;49.520;8.504;2023-10-09T10:36:51;28.90;;;27.13;;
13435;SDS011;6790;49.520;8.504;2023-10-09T10:39:23;33.90;;;31.52;;
13435;SDS011;6790;49.520;8.504;2023-10-09T10:42:10;21.70;;;19.85;;
13435;SDS011;6790;49.520;8.504;2023-10-09T10:44:58;23.60;;;21.70;;
13435;SDS011;6790;49.520;8.504;2023-10-09T10:47:48;28.15;;;26.20;;
13435;SDS011;6790;49.520;8.504;2023-10-09T10:50:17;30.73;;;28.45;;
13435;SDS011;6790;49.520;8.504;2023-10-09T10:56:01;31.80;;;29.77;;
13435;SDS011;6790;49.520;8.504;2023-10-09T10:58:53;30.02;;;27.65;;
13435;SDS011;6790;49.520;8.504;2023-10-09T11:01:32;25.52;;;23.60;;
13435;SDS011;6790;49.520;8.504;2023-10-09T11:04:17;26.27;;;24.10;;
13435;SDS011;6790;49.520;8.504;2023-10-09T11:07:00;36.22;;;33.60;;
13435;SDS011;6790;49.520;8.504;2023-10-09T11:10:09;30.83;;;28.52;;
13435;SDS011;6790;49.520;8.504;2023-10-09T11:12:29;36.13;;;33.75;;
13435;SDS011;6790;49.520;8.504;2023-10-09T11:15:10;42.05;;;38.75;;
13435;SDS011;6790;49.520;8.504;2023-10-09T11:18:00;36.17;;;33.70;;
13435;SDS011;6790;49.520;8.504;2023-10-09T11:20:55;34.08;;;31.42;;
13435;SDS011;6790;49.520;8.504;2023-10-09T11:23:24;31.52;;;29.30;;
13435;SDS011;6790;49.520;8.504;2023-10-09T11:25:59;35.58;;;33.03;;
13435;SDS011;6790;49.520;8.504;2023-10-09T11:32:19;30.15;;;28.13;;
13435;SDS011;6790;49.520;8.504;2023-10-09T11:34:51;33.83;;;31.23;;
13435;SDS011;6790;49.520;8.504;2023-10-09T11:37:56;32.33;;;29.75;;
13435;SDS011;6790;49.520;8.504;2023-10-09T11:40:32;32.63;;;30.35;;
13435;SDS011;6790;49.520;8.504;2023-10-09T11:43:19;36.38;;;33.80;;
13435;SDS011;6790;49.520;8.504;2023-10-09T11:46:11;38.28;;;36.08;;
13435;SDS011;6790;49.520;8.504;2023-10-09T11:48:36;39.35;;;36.67;;
13435;SDS011;6790;49.520;8.504;2023-10-09T11:51:31;37.45;;;34.63;;
13435;SDS011;6790;49.520;8.504;2023-10-09T11:53:57;42.45;;;39.83;;
13435;SDS011;6790;49.520;8.504;2023-10-09T11:56:24;38.92;;;36.08;;
13435;SDS011;6790;49.520;8.504;2023-10-09T11:58:52;39.13;;;36.60;;
13435;SDS011;6790;49.520;8.504;2023-10-09T12:01:19;45.60;;;42.70;;
13435;SDS011;6790;49.520;8.504;2023-10-09T12:03:46;42.40;;;39.80;;
13435;SDS011;6790;49.520;8.504;2023-10-09T12:06:15;42.85;;;40.03;;
13435;SDS011;6790;49.520;8.504;2023-10-09T12:08:44;38.63;;;36.03;;
13435;SDS011;6790;49.520;8.504;2023-10-09T12:11:14;46.38;;;43.33;;
13435;SDS011;6790;49.520;8.504;2023-10-09T12:13:53;43.50;;;40.83;;
13435;SDS011;6790;49.520;8.504;2023-10-09T12:16:23;45.03;;;42.05;;
13435;SDS011;6790;49.520;8.504;2023-10-09T12:18:53;41.05;;;38.63;;
13435;SDS011;6790;49.520;8.504;2023-10-09T12:21:22;49.65;;;46.15;;
13435;SDS011;6790;49.520;8.504;2023-10-09T12:23:49;46.20;;;43.00;;
13435;SDS011;6790;49.520;8.504;2023-10-09T12:26:14;49.88;;;46.67;;
13435;SDS011;6790;49.520;8.504;2023-10-09T12:28:41;39.45;;;36.72;;
13435;SDS011;6790;49.520;8.504;2023-10-09T12:31:10;44.90;;;42.08;;
13435;SDS011;6790;49.520;8.504;2023-10-09T12:33:40;42.10;;;39.38;;
13435;SDS011;6790;49.520;8.504;2023-10-09T12:36:06;49.85;;;46.63;;
13435;SDS011;6790;49.520;8.504;2023-10-09T12:38:42;43.70;;;40.60;;
13435;SDS011;6790;49.520;8.504;2023-10-09T12:41:11;50.05;;;47.03;;
13435;SDS011;6790;49.520;8.504;2023-10-09T12:43:50;45.28;;;42.53;;
13435;SDS011;6790;49.520;8.504;2023-10-09T12:46:19;47.38;;;44.17;;
13435;SDS011;6790;49.520;8.504;2023-10-09T12:48:48;50.97;;;47.47;;
13435;SDS011;6790;49.520;8.504;2023-10-09T12:51:15;45.25;;;42.35;;
13435;SDS011;6790;49.520;8.504;2023-10-09T12:53:44;51.65;;;48.55;;
13435;SDS011;6790;49.520;8.504;2023-10-09T12:56:11;52.58;;;49.45;;
13435;SDS011;6790;49.520;8.504;2023-10-09T12:58:37;54.80;;;51.40;;
13435;SDS011;6790;49.520;8.504;2023-10-09T13:01:04;58.22;;;54.60;;
13435;SDS011;6790;49.520;8.504;2023-10-09T13:03:40;56.10;;;52.70;;
13435;SDS011;6790;49.520;8.504;2023-10-09T13:06:05;47.45;;;44.45;;
13435;SDS011;6790;49.520;8.504;2023-10-09T13:08:35;50.72;;;47.55;;
13435;SDS011;6790;49.520;8.504;2023-10-09T13:11:05;54.75;;;51.40;;
13435;SDS011;6790;49.520;8.504;2023-10-09T13:13:40;50.47;;;47.17;;
13435;SDS011;6790;49.520;8.504;2023-10-09T13:16:14;59.92;;;56.05;;
13435;SDS011;6790;49.520;8.504;2023-10-09T13:18:53;56.40;;;52.92;;
13435;SDS011;6790;49.520;8.504;2023-10-09T13:23:59;54.90;;;51.30;;
13435;SDS011;6790;49.520;8.504;2023-10-09T13:26:27;51.00;;;48.00;;
13435;SDS011;6790;49.520;8.504;2023-10-09T13:28:55;55.10;;;51.53;;
13435;SDS011;6790;49.520;8.504;2023-10-09T13:31:22;49.28;;;46.13;;
13435;SDS011;6790;49.520;8.504;2023-10-09T13:33:53;54.90;;;50.80;;
13435;SDS011;6790;49.520;8.504;2023-10-09T13:36:24;51.78;;;48.70;;
13435;SDS011;6790;49.520;8.504;2023-10-09T13:38:54;47.78;;;45.05;;
13435;SDS011;6790;49.520;8.504;2023-10-09T13:41:20;54.80;;;51.55;;
13435;SDS011;6790;49.520;8.504;2023-10-09T13:43:47;53.92;;;50.65;;
13435;SDS011;6790;49.520;8.504;2023-10-09T13:46:16;48.03;;;44.95;;
13435;SDS011;6790;49.520;8.504;2023-10-09T13:48:43;57.40;;;53.97;;
13435;SDS011;6790;49.520;8.504;2023-10-09T13:51:10;55.40;;;52.15;;
13435;SDS011;6790;49.520;8.504;2023-10-09T13:53:42;50.88;;;47.97;;
13435;SDS011;6790;49.520;8.504;2023-10-09T13:56:15;48.65;;;45.40;;
13435;SDS011;6790;49.520;8.504;2023-10-09T13:58:49;48.67;;;45.35;;
13435;SDS011;6790;49.520;8.504;2023-10-09T14:01:20;55.65;;;52.25;;
13435;SDS011;6790;49.520;8.504;2023-10-09T14:03:55;51.78;;;48.78;;
13435;SDS011;6790;49.520;8.504;2023-10-09T14:06:23;50.78;;;47.78;;
13435;SDS011;6790;49.520;8.504;2023-10-09T14:09:04;48.20;;;45.30;;
13435;SDS011;6790;49.520;8.504;2023-10-09T14:11:30;47.03;;;44.13;;
13435;SDS011;6790;49.520;8.504;2023-10-09T14:13:57;50.00;;;47.10;;
13435;SDS011;6790;49.520;8.504;2023-10-09T14:16:27;46.55;;;43.65;;
13435;SDS011;6790;49.520;8.504;2023-10-09T14:18:53;51.88;;;49.08;;
13435;SDS011;6790;49.520;8.504;2023-10-09T14:21:23;58.85;;;55.35;;
13435;SDS011;6790;49.520;8.504;2023-10-09T14:23:51;43.78;;;41.00;;
13435;SDS011;6790;49.520;8.504;2023-10-09T14:26:21;50.42;;;47.33;;
13435;SDS011;6790;49.520;8.504;2023-10-09T14:29:09;62.28;;;57.75;;
13435;SDS011;6790;49.520;8.504;2023-10-09T14:31:35;51.95;;;48.78;;
13435;SDS011;6790;49.520;8.504;2023-10-09T14:34:04;50.10;;;46.90;;
13435;SDS011;6790;49.520;8.504;2023-10-09T14:36:30;52.58;;;49.30;;
13435;SDS011;6790;49.520;8.504;2023-10-09T14:39:08;53.05;;;49.85;;
13435;SDS011;6790;49.520;8.504;2023-10-09T14:41:38;46.50;;;43.63;;
13435;SDS011;6790;49.520;8.504;2023-10-09T14:44:05;50.13;;;47.08;;
13435;SDS011;6790;49.520;8.504;2023-10-09T14:46:34;52.03;;;48.92;;
13435;SDS011;6790;49.520;8.504;2023-10-09T14:49:00;45.53;;;42.60;;
13435;SDS011;6790;49.520;8.504;2023-10-09T14:51:26;49.65;;;46.58;;
13435;SDS011;6790;49.520;8.504;2023-10-09T14:53:53;44.10;;;41.22;;
13435;SDS011;6790;49.520;8.504;2023-10-09T14:56:22;52.33;;;49.35;;
13435;SDS011;6790;49.520;8.504;2023-10-09T14:58:58;50.22;;;47.05;;
13435;SDS011;6790;49.520;8.504;2023-10-09T15:01:26;57.88;;;54.38;;
13435;SDS011;6790;49.520;8.504;2023-10-09T15:03:56;61.15;;;56.97;;
13435;SDS011;6790;49.520;8.504;2023-10-09T15:06:24;53.75;;;50.47;;
13435;SDS011;6790;49.520;8.504;2023-10-09T15:08:54;51.92;;;48.45;;
13435;SDS011;6790;49.520;8.504;2023-10-09T15:11:25;54.30;;;51.22;;
13435;SDS011;6790;49.520;8.504;2023-10-09T15:13:53;55.67;;;52.25;;
13435;SDS011;6790;49.520;8.504;2023-10-09T15:16:22;54.33;;;50.97;;
13435;SDS011;6790;49.520;8.504;2023-10-09T15:18:51;51.63;;;48.35;;
13435;SDS011;6790;49.520;8.504;2023-10-09T15:21:19;49.08;;;46.15;;
13435;SDS011;6790;49.520;8.504;2023-10-09T15:23:51;49.55;;;46.65;;
13435;SDS011;6790;49.520;8.504;2023-10-09T15:26:19;46.50;;;43.50;;
13435;SDS011;6790;49.520;8.504;2023-10-09T15:28:46;49.92;;;46.90;;
13435;SDS011;6790;49.520;8.504;2023-10-09T15:31:11;52.78;;;49.33;;
13435;SDS011;6790;49.520;8.504;2023-10-09T15:33:40;55.10;;;51.80;;
13435;SDS011;6790;49.520;8.504;2023-10-09T15:36:13;53.53;;;50.35;;
13435;SDS011;6790;49.520;8.504;2023-10-09T15:38:45;45.92;;;43.08;;
13435;SDS011;6790;49.520;8.504;2023-10-09T15:41:14;44.60;;;41.75;;
13435;SDS011;6790;49.520;8.504;2023-10-09T15:43:41;45.75;;;42.78;;
13435;SDS011;6790;49.520;8.504;2023-10-09T15:46:13;49.40;;;46.30;;
13435;SDS011;6790;49.520;8.504;2023-10-09T15:48:39;50.65;;;47.72;;
13435;SDS011;6790;49.520;8.504;2023-10-09T15:51:11;44.20;;;41.30;;
13435;SDS011;6790;49.520;8.504;2023-10-09T15:53:39;41.22;;;38.72;;
13435;SDS011;6790;49.520;8.504;2023-10-09T15:56:09;45.53;;;42.83;;
13435;SDS011;6790;49.520;8.504;2023-10-09T15:58:37;53.08;;;49.83;;